createdAt,value
2022-12-26T00:01:09.541Z,17.63
2022-12-26T00:04:51.844Z,17.80
2022-12-26T00:07:33.134Z,17.00
2022-12-26T00:10:34.810Z,17.17
2022-12-26T00:13:39.195Z,16.85
2022-12-26T00:16:47.013Z,16.73
2022-12-26T00:19:48.827Z,16.23
2022-12-26T00:22:50.780Z,15.93
2022-12-26T00:25:56.550Z,15.85
2022-12-26T00:28:58.782Z,15.15
2022-12-26T00:32:03.673Z,14.63
2022-12-26T00:35:05.809Z,14.88
2022-12-26T00:38:07.860Z,13.63
2022-12-26T00:41:10.704Z,15.48
2022-12-26T00:44:12.422Z,14.15
2022-12-26T00:47:14.228Z,13.70
2022-12-26T00:50:16.287Z,13.30
2022-12-26T00:53:18.628Z,14.50
2022-12-26T00:56:20.330Z,14.13
2022-12-26T00:59:21.986Z,13.70
2022-12-26T01:02:38.927Z,14.07
2022-12-26T01:05:46.346Z,13.73
2022-12-26T01:08:48.146Z,14.48
2022-12-26T01:11:49.877Z,13.93
2022-12-26T01:14:51.573Z,14.80
2022-12-26T01:17:53.271Z,14.63
2022-12-26T01:21:00.229Z,14.15
2022-12-26T01:24:02.098Z,15.85
2022-12-26T01:27:03.856Z,15.48
2022-12-26T01:30:06.458Z,15.25
2022-12-26T01:33:08.129Z,14.93
2022-12-26T01:36:10.228Z,15.85
2022-12-26T01:39:11.993Z,15.90
2022-12-26T01:42:16.648Z,14.80
2022-12-26T01:45:26.330Z,16.17
2022-12-26T01:48:34.453Z,15.90
2022-12-26T01:51:40.591Z,15.70
2022-12-26T01:54:47.038Z,16.63
2022-12-26T01:57:56.006Z,15.52
2022-12-26T02:00:58.213Z,15.48
2022-12-26T02:04:23.435Z,15.23
2022-12-26T02:07:26.596Z,15.95
2022-12-26T02:10:31.481Z,15.27
2022-12-26T02:13:35.951Z,15.68
2022-12-26T02:16:39.046Z,15.63
2022-12-26T02:20:16.148Z,15.57
2022-12-26T02:23:37.309Z,15.65
2022-12-26T02:26:44.637Z,15.15
2022-12-26T02:30:13.680Z,15.15
2022-12-26T02:33:42.956Z,14.25
2022-12-26T02:37:03.466Z,13.13
2022-12-26T02:40:15.848Z,13.48
2022-12-26T02:43:31.210Z,13.13
2022-12-26T02:47:05.448Z,13.13
2022-12-26T02:50:41.004Z,13.43
2022-12-26T02:54:21.996Z,13.10
2022-12-26T02:57:49.080Z,13.18
2022-12-26T03:01:17.534Z,12.70
2022-12-26T03:04:40.585Z,12.98
2022-12-26T03:08:01.863Z,12.25
2022-12-26T03:11:22.584Z,13.23
2022-12-26T03:14:28.303Z,13.00
2022-12-26T03:17:59.429Z,12.38
2022-12-26T03:21:02.350Z,12.98
2022-12-26T03:24:05.731Z,13.25
2022-12-26T03:27:07.428Z,13.20
2022-12-26T03:30:28.289Z,12.85
2022-12-26T03:33:54.508Z,13.57
2022-12-26T03:37:08.639Z,12.75
2022-12-26T03:41:15.485Z,12.27
2022-12-26T03:44:54.230Z,11.67
2022-12-26T03:48:37.200Z,12.88
2022-12-26T03:52:15.526Z,12.40
2022-12-26T03:55:44.969Z,12.85
2022-12-26T03:59:12.500Z,12.07
2022-12-26T04:02:35.099Z,12.67
2022-12-26T04:05:58.566Z,12.23
2022-12-26T04:09:25.349Z,13.38
2022-12-26T04:12:48.239Z,12.73
2022-12-26T04:16:21.633Z,13.15
2022-12-26T04:19:32.253Z,12.90
2022-12-26T04:23:14.662Z,12.45
2022-12-26T04:26:43.649Z,13.90
2022-12-26T04:30:05.424Z,13.35
2022-12-26T04:33:35.687Z,13.13
2022-12-26T04:37:04.664Z,14.17
2022-12-26T04:40:30.952Z,12.82
2022-12-26T04:43:52.214Z,14.50
2022-12-26T04:46:55.965Z,13.82
2022-12-26T04:50:13.366Z,14.07
2022-12-26T04:53:15.277Z,13.23
2022-12-26T04:56:18.709Z,13.80
2022-12-26T04:59:22.183Z,14.38
2022-12-26T05:02:42.144Z,14.45
2022-12-26T05:06:05.229Z,14.32
2022-12-26T05:09:28.991Z,14.60
2022-12-26T05:12:30.824Z,14.93
2022-12-26T05:15:52.522Z,15.10
2022-12-26T05:19:12.540Z,15.02
2022-12-26T05:22:32.826Z,15.77
2022-12-26T05:26:00.072Z,15.87
2022-12-26T05:29:03.725Z,16.00
2022-12-26T05:32:05.409Z,15.23
2022-12-26T05:35:07.303Z,16.42
2022-12-26T05:38:11.020Z,17.65
2022-12-26T05:41:12.691Z,18.47
2022-12-26T05:44:14.498Z,17.35
2022-12-26T05:47:16.152Z,17.08
2022-12-26T05:50:17.861Z,17.50
2022-12-26T05:53:19.532Z,18.65
2022-12-26T05:56:21.657Z,18.00
2022-12-26T05:59:23.597Z,17.77
2022-12-26T06:02:25.292Z,17.65
2022-12-26T06:05:27.053Z,17.77
2022-12-26T06:08:29.282Z,18.95
2022-12-26T06:11:31.501Z,19.50
2022-12-26T06:14:33.281Z,19.35
2022-12-26T06:17:35.003Z,21.08
2022-12-26T06:20:39.756Z,19.95
2022-12-26T06:23:41.630Z,20.15
2022-12-26T06:26:43.317Z,20.37
2022-12-26T06:29:45.727Z,21.45
2022-12-26T06:32:47.397Z,19.83
2022-12-26T06:35:49.124Z,22.77
2022-12-26T06:38:50.923Z,20.73
2022-12-26T06:41:52.600Z,19.63
2022-12-26T06:44:54.220Z,22.73
2022-12-26T06:47:55.885Z,21.48
2022-12-26T06:50:57.674Z,20.20
2022-12-26T06:54:04.194Z,20.83
2022-12-26T06:57:05.852Z,22.67
2022-12-26T07:00:08.330Z,20.25
2022-12-26T07:03:10.839Z,19.30
2022-12-26T07:06:24.889Z,20.00
2022-12-26T07:09:33.191Z,21.25
2022-12-26T07:12:36.091Z,18.53
2022-12-26T07:15:38.303Z,22.20
2022-12-26T07:18:40.418Z,20.92
2022-12-26T07:21:42.740Z,20.85
2022-12-26T07:24:44.408Z,26.65
2022-12-26T07:27:46.058Z,21.50
2022-12-26T07:30:49.201Z,20.52
2022-12-26T07:33:53.255Z,18.65
2022-12-26T07:36:54.961Z,19.90
2022-12-26T07:39:59.248Z,18.60
2022-12-26T07:43:01.241Z,20.30
2022-12-26T07:46:02.923Z,18.67
2022-12-26T07:49:04.720Z,20.15
2022-12-26T07:52:06.482Z,21.38
2022-12-26T07:55:09.017Z,17.63
2022-12-26T07:58:10.790Z,21.73
2022-12-26T08:01:12.627Z,19.80
2022-12-26T08:04:14.741Z,19.80
2022-12-26T08:07:16.386Z,19.83
2022-12-26T08:10:18.159Z,19.17
2022-12-26T08:13:19.834Z,18.90
2022-12-26T08:16:21.560Z,19.40
2022-12-26T08:19:23.262Z,19.35
2022-12-26T08:22:25.519Z,18.42
2022-12-26T08:25:27.787Z,17.48
2022-12-26T08:28:29.500Z,17.97
2022-12-26T08:31:31.189Z,17.05
2022-12-26T08:34:36.047Z,19.10
2022-12-26T08:37:37.724Z,18.23
2022-12-26T08:40:43.953Z,18.95
2022-12-26T08:47:14.988Z,19.40
2022-12-26T08:50:17.121Z,16.95
2022-12-26T08:53:19.093Z,18.10
2022-12-26T08:56:24.850Z,18.48
2022-12-26T08:59:26.638Z,17.67
2022-12-26T09:02:28.371Z,15.93
2022-12-26T09:05:31.874Z,17.17
2022-12-26T09:08:35.305Z,17.00
2022-12-26T09:11:37.656Z,17.00
2022-12-26T09:14:39.371Z,16.03
2022-12-26T09:17:41.013Z,15.50
2022-12-26T09:20:42.910Z,16.23
2022-12-26T09:23:44.879Z,15.73
2022-12-26T09:26:46.766Z,16.40
2022-12-26T09:29:48.431Z,14.10
2022-12-26T09:32:50.279Z,17.10
2022-12-26T09:35:51.940Z,16.70
2022-12-26T09:38:56.152Z,14.80
2022-12-26T09:42:19.949Z,14.10
2022-12-26T09:45:37.248Z,15.37
2022-12-26T09:48:54.420Z,14.65
2022-12-26T09:52:00.425Z,15.70
2022-12-26T09:55:19.515Z,12.98
2022-12-26T09:58:32.182Z,14.85
2022-12-26T10:01:36.708Z,14.27
2022-12-26T10:04:38.551Z,15.32
2022-12-26T10:07:45.284Z,14.18
2022-12-26T10:10:57.183Z,14.10
2022-12-26T10:14:05.286Z,14.13
2022-12-26T10:17:28.220Z,13.83
2022-12-26T10:20:52.971Z,14.02
2022-12-26T10:24:20.610Z,14.50
2022-12-26T10:27:24.472Z,14.23
2022-12-26T10:30:33.990Z,13.93
2022-12-26T10:33:43.474Z,13.40
2022-12-26T10:36:52.833Z,14.07
2022-12-26T10:40:05.854Z,13.75
2022-12-26T10:43:28.949Z,13.20
2022-12-26T10:46:46.008Z,12.98
2022-12-26T10:49:49.340Z,13.80
2022-12-26T10:52:51.509Z,12.48
2022-12-26T10:55:53.213Z,9.00
2022-12-26T10:59:03.918Z,7.88
2022-12-26T11:02:28.198Z,7.38
2022-12-26T11:06:05.897Z,7.50
2022-12-26T11:08:51.916Z,8.63
2022-12-26T11:11:54.400Z,8.02
2022-12-26T11:15:31.157Z,8.65
2022-12-26T11:18:47.156Z,7.97
2022-12-26T11:21:48.873Z,8.13
2022-12-26T11:25:09.144Z,7.75
2022-12-26T11:28:23.879Z,7.65
2022-12-26T11:31:28.117Z,7.05
2022-12-26T11:34:34.623Z,7.10
2022-12-26T11:37:44.304Z,6.93
2022-12-26T11:41:11.767Z,7.57
2022-12-26T11:44:19.522Z,9.40
2022-12-26T11:47:25.593Z,9.43
2022-12-26T11:50:30.290Z,9.30
2022-12-26T11:53:34.569Z,7.63
2022-12-26T11:56:36.200Z,7.90
2022-12-26T11:59:38.183Z,8.02
2022-12-26T12:02:41.034Z,7.40
2022-12-26T12:05:46.173Z,7.35
2022-12-26T12:09:06.451Z,6.97
2022-12-26T12:12:35.812Z,7.60
2022-12-26T12:15:49.188Z,7.35
2022-12-26T12:18:59.227Z,7.38
2022-12-26T12:22:15.950Z,7.40
2022-12-26T12:25:38.041Z,7.37
2022-12-26T12:28:50.024Z,8.20
2022-12-26T12:32:18.590Z,7.72
2022-12-26T12:35:29.413Z,7.60
2022-12-26T12:38:54.698Z,7.45
2022-12-26T12:42:14.259Z,7.77
2022-12-26T12:45:36.615Z,7.35
2022-12-26T12:48:47.448Z,7.90
2022-12-26T12:52:13.112Z,7.85
2022-12-26T12:55:19.540Z,6.78
2022-12-26T12:58:33.224Z,7.63
2022-12-26T13:01:42.803Z,7.30
2022-12-26T13:04:53.531Z,6.93
2022-12-26T13:08:01.490Z,7.50
2022-12-26T13:11:06.036Z,6.82
2022-12-26T13:14:19.180Z,6.33
2022-12-26T13:17:27.523Z,7.88
2022-12-26T13:20:38.574Z,6.93
2022-12-26T13:24:19.372Z,6.15
2022-12-26T13:27:36.125Z,5.75
2022-12-26T13:30:38.760Z,6.17
2022-12-26T13:33:43.170Z,5.93
2022-12-26T13:36:47.719Z,5.95
2022-12-26T13:39:52.639Z,5.97
2022-12-26T13:43:42.449Z,6.60
2022-12-26T13:46:47.093Z,7.10
2022-12-26T13:49:49.212Z,6.35
2022-12-26T13:52:51.036Z,7.00
2022-12-26T13:56:04.565Z,6.72
2022-12-26T13:59:28.589Z,7.38
2022-12-26T14:03:20.066Z,6.47
2022-12-26T14:06:57.321Z,7.68
2022-12-26T14:10:07.466Z,7.07
2022-12-26T14:13:34.608Z,7.20
2022-12-26T14:16:54.622Z,7.03
2022-12-26T14:20:24.750Z,6.80
2022-12-26T14:24:07.294Z,6.70
2022-12-26T14:27:24.925Z,6.72
2022-12-26T14:30:54.470Z,7.55
2022-12-26T14:34:10.749Z,24.88
2022-12-26T14:37:30.627Z,13.43
2022-12-26T14:40:35.324Z,18.83
2022-12-26T14:43:41.345Z,11.55
2022-12-26T14:46:42.929Z,11.18
2022-12-26T14:49:44.962Z,9.60
2022-12-26T14:52:47.901Z,10.07
2022-12-26T14:56:03.692Z,8.23
2022-12-26T14:59:29.240Z,8.82
2022-12-26T15:02:34.369Z,10.93
2022-12-26T15:05:44.401Z,21.02
2022-12-26T15:09:29.151Z,15.93
2022-12-26T15:12:58.501Z,10.48
2022-12-26T15:16:17.085Z,9.50
2022-12-26T15:19:24.647Z,10.40
2022-12-26T15:23:13.583Z,11.20
2022-12-26T15:26:47.372Z,14.03
2022-12-26T15:29:51.860Z,16.15
2022-12-26T15:33:07.655Z,13.68
2022-12-26T15:36:40.324Z,13.00
2022-12-26T15:39:55.969Z,13.68
2022-12-26T15:43:25.133Z,13.37
2022-12-26T15:46:33.119Z,11.57
2022-12-26T15:49:50.078Z,13.27
2022-12-26T15:53:07.618Z,14.90
2022-12-26T15:56:41.360Z,16.40
2022-12-26T16:00:17.608Z,17.33
2022-12-26T16:03:42.819Z,16.85
2022-12-26T16:07:17.338Z,10.52
2022-12-26T16:10:25.039Z,9.38
2022-12-26T16:13:26.923Z,9.13
2022-12-26T16:16:28.715Z,8.67
2022-12-26T16:19:30.486Z,9.70
2022-12-26T16:22:43.983Z,11.13
2022-12-26T16:25:50.694Z,11.90
2022-12-26T16:28:54.207Z,11.20
2022-12-26T16:32:03.645Z,12.10
2022-12-26T16:35:07.139Z,13.68
2022-12-26T16:38:14.782Z,15.40
2022-12-26T16:41:25.000Z,19.15
2022-12-26T16:44:43.004Z,18.98
2022-12-26T16:47:45.653Z,18.00
2022-12-26T16:50:52.495Z,17.60
2022-12-26T16:53:54.158Z,18.70
2022-12-26T16:57:09.288Z,17.30
2022-12-26T17:00:17.958Z,17.35
2022-12-26T17:03:29.057Z,16.70
2022-12-26T17:06:34.844Z,17.65
2022-12-26T17:09:44.768Z,16.88
2022-12-26T17:12:47.763Z,17.75
2022-12-26T17:15:58.690Z,18.20
2022-12-26T17:19:16.692Z,19.30
2022-12-26T17:22:28.250Z,17.85
2022-12-26T17:25:33.393Z,16.88
2022-12-26T17:28:37.363Z,15.60
2022-12-26T17:31:41.836Z,16.67
2022-12-26T17:34:44.058Z,17.10
2022-12-26T17:37:49.487Z,17.17
2022-12-26T17:41:00.995Z,16.42
2022-12-26T17:44:02.636Z,16.85
2022-12-26T17:47:23.121Z,17.58
2022-12-26T17:50:31.066Z,17.50
2022-12-26T17:53:38.618Z,18.40
2022-12-26T17:56:40.258Z,18.52
2022-12-26T17:59:42.273Z,18.67
2022-12-26T18:02:44.044Z,18.35
2022-12-26T18:05:47.400Z,17.47
2022-12-26T18:08:49.102Z,18.05
2022-12-26T18:11:50.796Z,17.90
2022-12-26T18:14:57.678Z,17.08
2022-12-26T18:18:02.950Z,18.13
2022-12-26T18:21:07.672Z,17.93
2022-12-26T18:24:09.705Z,16.75
2022-12-26T18:27:22.662Z,17.38
2022-12-26T18:30:25.858Z,18.15
2022-12-26T18:33:27.534Z,17.83
2022-12-26T18:36:32.567Z,18.77
2022-12-26T18:39:34.419Z,19.13
2022-12-26T18:42:36.115Z,18.98
2022-12-26T18:45:38.382Z,17.65
2022-12-26T18:48:40.046Z,17.58
2022-12-26T18:51:41.741Z,17.67
2022-12-26T18:54:43.707Z,18.67
2022-12-26T18:57:45.444Z,18.75
2022-12-26T19:00:47.403Z,19.38
2022-12-26T19:03:49.524Z,18.42
2022-12-26T19:06:51.304Z,19.17
2022-12-26T19:09:55.620Z,18.48
2022-12-26T19:13:04.759Z,19.23
2022-12-26T19:16:07.773Z,18.42
2022-12-26T19:19:09.720Z,19.50
2022-12-26T19:22:11.588Z,18.50
2022-12-26T19:25:14.535Z,18.13
2022-12-26T19:28:16.360Z,18.90
2022-12-26T19:31:19.446Z,18.02
2022-12-26T19:34:23.195Z,19.90
2022-12-26T19:37:25.375Z,20.47
2022-12-26T19:40:27.127Z,19.55
2022-12-26T19:43:28.797Z,21.33
2022-12-26T19:46:30.454Z,20.98
2022-12-26T19:49:33.954Z,20.83
2022-12-26T19:52:37.950Z,20.73
2022-12-26T19:55:40.283Z,20.23
2022-12-26T19:58:42.731Z,21.33
2022-12-26T20:01:44.835Z,22.40
2022-12-26T20:04:46.836Z,20.92
2022-12-26T20:07:48.612Z,20.53
2022-12-26T20:10:51.933Z,21.88
2022-12-26T20:13:57.103Z,20.88
2022-12-26T20:17:05.629Z,19.85
2022-12-26T20:20:08.786Z,20.63
2022-12-26T20:23:10.487Z,20.57
2022-12-26T20:26:18.622Z,19.20
2022-12-26T20:29:20.326Z,20.08
2022-12-26T20:32:22.045Z,19.95
2022-12-26T20:35:23.680Z,19.92
2022-12-26T20:38:25.349Z,20.10
2022-12-26T20:41:28.503Z,19.30
2022-12-26T20:44:30.178Z,19.70
2022-12-26T20:47:31.947Z,20.63
2022-12-26T20:50:34.276Z,19.45
2022-12-26T20:53:36.199Z,20.33
2022-12-26T20:56:38.506Z,20.98
2022-12-26T20:59:40.189Z,20.33
2022-12-26T21:02:41.985Z,22.38
2022-12-26T21:05:44.293Z,21.90
2022-12-26T21:08:47.508Z,20.90
2022-12-26T21:11:49.248Z,19.23
2022-12-26T21:14:50.915Z,18.17
2022-12-26T21:17:52.904Z,18.70
2022-12-26T21:20:54.818Z,18.05
2022-12-26T21:24:05.479Z,16.73
2022-12-26T21:27:07.236Z,17.05
2022-12-26T21:30:09.649Z,17.65
2022-12-26T21:33:11.313Z,16.83
2022-12-26T21:36:14.288Z,17.10
2022-12-26T21:39:16.156Z,17.07
2022-12-26T21:42:18.022Z,16.63
2022-12-26T21:45:19.731Z,17.20
2022-12-26T21:48:21.603Z,16.88
2022-12-26T21:51:28.803Z,16.33
2022-12-26T21:54:49.587Z,16.47
2022-12-26T21:57:51.323Z,15.52
2022-12-26T22:00:53.012Z,17.00
2022-12-26T22:04:13.957Z,15.88
2022-12-26T22:07:15.706Z,16.23
2022-12-26T22:10:36.215Z,16.10
2022-12-26T22:13:41.273Z,15.43
2022-12-26T22:16:42.912Z,16.60
2022-12-26T22:19:44.670Z,16.75
2022-12-26T22:22:46.445Z,16.02
2022-12-26T22:25:55.340Z,15.43
2022-12-26T22:28:57.917Z,16.23
2022-12-26T22:32:00.095Z,16.13
2022-12-26T22:35:01.888Z,15.40
2022-12-26T22:38:03.583Z,15.57
2022-12-26T22:41:05.961Z,15.57
2022-12-26T22:44:08.312Z,14.90
2022-12-26T22:47:10.002Z,15.68
2022-12-26T22:50:16.181Z,15.20
2022-12-26T22:53:17.910Z,15.50
2022-12-26T22:56:19.617Z,14.80
2022-12-26T22:59:41.596Z,14.60
2022-12-26T23:02:43.907Z,14.32
2022-12-26T23:05:46.775Z,14.27
2022-12-26T23:08:50.462Z,14.00
2022-12-26T23:12:10.843Z,13.97
2022-12-26T23:15:22.380Z,13.65
2022-12-26T23:19:05.977Z,13.23
2022-12-26T23:22:07.860Z,12.27
2022-12-26T23:25:11.358Z,12.10
2022-12-26T23:28:31.393Z,10.80
2022-12-26T23:31:33.057Z,10.38
2022-12-26T23:34:34.980Z,10.18
2022-12-26T23:37:38.918Z,9.52
2022-12-26T23:40:40.650Z,9.77
2022-12-26T23:43:42.369Z,9.00
2022-12-26T23:46:47.179Z,10.10
2022-12-26T23:49:49.731Z,9.07
2022-12-26T23:52:51.397Z,8.98
2022-12-26T23:55:53.253Z,8.57
2022-12-26T23:58:55.683Z,9.00
